Weather at Banner University Medical Center Helipad

Public forecast

Using degrees Fahrenheit for public forecast. Weather courtesy of forecast.io.

Closest aviation weather report (METAR) to Banner University Medical Center Helipad

Closest report is Phoenix Sky Harbor International Airport, 3.2 nm (5.8 km) SE.

2024/07/20 17:51 (retrieved 32 minutes ago)

KPHX 201751Z 24004KT 10SM FEW090 FEW120 FEW210 SCT250 41/16 A2989 RMK AO2 SLP096 T04110156 10411 20344 50000

Closest aviation forecast (TAF) to Banner University Medical Center Helipad

Closest forecast is Phoenix Sky Harbor International Airport, 3.2 nm (5.8 km) SE.

2024/07/20 18:22 (retrieved 38 seconds ago)

TAF KPHX 201720Z 2018/2124 26007KT P6SM FEW150 SCT250 TEMPO 2020/2024 28010G18KT FM210300 12011KT P6SM VCSH SCT100 BKN150 TEMPO 2103/2105 17018G25KT FM210600 11008KT P6SM SCT150 BKN250 FM211800 23008KT P6SM FEW100 FEW150